Time;durP1;ratioP1;P1;durP2;ratioP2;P2;SDS_P1;SDS_P2;PMS_P1;PMS_P2;Temp;Humidity;BMP_temperature;BMP_pressure;BME280_temperature;BME280_humidity;BME280_pressure;Samples;Min_cycle;Max_cycle;Signal;HPM_P1;HPM_P2
2022/04/23 00:01:21;;;;;;;5.93;2.33;;;;;;;;;;4932384;29;20052;-69
2022/04/23 00:03:47;;;;;;;8.15;2.03;;;;;;;;;;4932031;29;20517;-70
2022/04/23 00:06:14;;;;;;;5.97;2.20;;;;;;;;;;4933064;29;20107;-69
2022/04/23 00:08:40;;;;;;;3.15;1.90;;;;;;;;;;4932419;29;20128;-70
2022/04/23 00:11:06;;;;;;;4.35;2.13;;;;;;;;;;4931922;29;20489;-69
2022/04/23 00:13:32;;;;;;;7.97;2.53;;;;;;;;;;4932471;29;20062;-69
2022/04/23 00:15:58;;;;;;;5.43;2.00;;;;;;;;;;4931365;29;20169;-69
2022/04/23 00:18:24;;;;;;;7.53;2.50;;;;;;;;;;4931595;29;20618;-70
2022/04/23 00:20:50;;;;;;;3.97;2.17;;;;;;;;;;4932126;29;20573;-70
2022/04/23 00:23:16;;;;;;;4.00;2.15;;;;;;;;;;4932510;29;20044;-70
2022/04/23 00:25:45;;;;;;;5.75;2.28;;;;;;;;;;4932053;29;20130;-71
2022/04/23 00:28:11;;;;;;;7.10;2.40;;;;;;;;;;4931896;29;20047;-70
2022/04/23 00:30:38;;;;;;;4.38;1.65;;;;;;;;;;4930746;29;20058;-70
2022/04/23 00:33:04;;;;;;;4.45;2.33;;;;;;;;;;4932427;29;20094;-70
2022/04/23 00:35:31;;;;;;;4.70;2.10;;;;;;;;;;4931777;29;20531;-70
2022/04/23 00:37:57;;;;;;;3.83;2.15;;;;;;;;;;4932191;29;20528;-70
2022/04/23 00:40:24;;;;;;;3.45;2.00;;;;;;;;;;4932312;29;20117;-70
2022/04/23 00:42:52;;;;;;;4.30;2.25;;;;;;;;;;4932408;29;20063;-70
2022/04/23 00:45:28;;;;;;;3.42;2.28;;;;;;;;;;4932147;29;20150;-70
2022/04/23 00:47:54;;;;;;;6.05;2.53;;;;;;;;;;4931374;29;20493;-70
2022/04/23 00:50:24;;;;;;;5.25;2.20;;;;;;;;;;4932001;29;20502;-70
2022/04/23 00:52:50;;;;;;;;;;;;;;;;;;4932049;29;20110;-71
2022/04/23 00:55:16;;;;;;;3.38;1.98;;;;;;;;;;4931418;29;19977;-70
2022/04/23 00:57:42;;;;;;;4.38;2.20;;;;;;;;;;4931690;29;20047;-70
2022/04/23 01:00:09;;;;;;;5.00;2.35;;;;;;;;;;4946335;29;20051;-70
2022/04/23 01:02:39;;;;;;;6.15;2.35;;;;;;;;;;4931261;29;20091;-70
2022/04/23 01:05:09;;;;;;;4.22;2.22;;;;;;;;;;4931335;29;20044;-70
2022/04/23 01:07:38;;;;;;;5.90;2.05;;;;;;;;;;4930336;29;20063;-69
2022/04/23 01:10:05;;;;;;;4.50;2.05;;;;;;;;;;4931203;29;20110;-70
2022/04/23 01:12:31;;;;;;;4.03;2.00;;;;;;;;;;4931805;29;20047;-70
2022/04/23 01:14:58;;;;;;;3.85;2.05;;;;;;;;;;4931799;29;20091;-70
2022/04/23 01:17:24;;;;;;;3.70;2.42;;;;;;;;;;4930699;29;20462;-70
2022/04/23 01:19:50;;;;;;;3.78;2.10;;;;;;;;;;4931563;29;21270;-70
2022/04/23 01:22:17;;;;;;;4.93;1.95;;;;;;;;;;4931326;29;20048;-71
2022/04/23 01:24:43;;;;;;;3.72;2.17;;;;;;;;;;4931332;29;20200;-70
2022/04/23 01:27:10;;;;;;;4.60;2.10;;;;;;;;;;4931763;29;20048;-70
2022/04/23 01:29:37;;;;;;;2.85;1.83;;;;;;;;;;4931385;29;20127;-70
2022/04/23 01:32:06;;;;;;;4.25;1.98;;;;;;;;;;4931471;29;20418;-70
2022/04/23 01:34:32;;;;;;;3.72;1.83;;;;;;;;;;4930037;29;20063;-70
2022/04/23 01:36:58;;;;;;;3.83;2.10;;;;;;;;;;4931338;29;20493;-71
2022/04/23 01:39:24;;;;;;;4.45;2.05;;;;;;;;;;4931519;29;20048;-71
2022/04/23 01:41:50;;;;;;;3.10;1.90;;;;;;;;;;4930920;29;20055;-70
2022/04/23 01:44:16;;;;;;;5.63;2.50;;;;;;;;;;4931221;29;20409;-70
2022/04/23 01:46:42;;;;;;;3.65;2.10;;;;;;;;;;4931130;29;20051;-70
2022/04/23 01:49:08;;;;;;;3.60;1.85;;;;;;;;;;4929746;29;20055;-71
2022/04/23 01:51:34;;;;;;;3.17;1.83;;;;;;;;;;4930940;29;20043;-70
2022/04/23 01:54:00;;;;;;;7.40;2.40;;;;;;;;;;4930897;29;20190;-71
2022/04/23 01:56:26;;;;;;;4.72;2.08;;;;;;;;;;4931386;29;20465;-71
2022/04/23 01:58:52;;;;;;;3.83;1.92;;;;;;;;;;4930737;29;20051;-69
2022/04/23 02:01:18;;;;;;;3.60;1.90;;;;;;;;;;4931071;29;20513;-70
2022/04/23 02:03:45;;;;;;;4.78;1.63;;;;;;;;;;4930753;29;20055;-69
2022/04/23 02:06:12;;;;;;;5.32;2.05;;;;;;;;;;4930758;29;20086;-70
2022/04/23 02:08:38;;;;;;;3.38;1.90;;;;;;;;;;4930854;29;20052;-70
2022/04/23 02:11:04;;;;;;;2.92;2.20;;;;;;;;;;4931074;29;20541;-70
2022/04/23 02:13:31;;;;;;;3.55;2.20;;;;;;;;;;4930895;29;20044;-70
2022/04/23 02:15:57;;;;;;;3.85;2.25;;;;;;;;;;4930683;29;20059;-70
2022/04/23 02:18:26;;;;;;;3.05;2.00;;;;;;;;;;4929800;29;20047;-70
2022/04/23 02:20:52;;;;;;;3.22;1.95;;;;;;;;;;4931440;29;20055;-70
2022/04/23 02:23:19;;;;;;;2.67;1.90;;;;;;;;;;4934422;29;20143;-70
2022/04/23 02:25:45;;;;;;;3.28;2.15;;;;;;;;;;4934484;29;20087;-69
2022/04/23 02:28:12;;;;;;;4.97;1.73;;;;;;;;;;4934355;29;20131;-70
2022/04/23 02:30:38;;;;;;;2.65;1.85;;;;;;;;;;4934054;29;20055;-69
2022/04/23 02:33:04;;;;;;;4.22;2.10;;;;;;;;;;4934439;29;20079;-69
2022/04/23 02:35:34;;;;;;;5.47;2.40;;;;;;;;;;4934008;29;20047;-71
2022/04/23 02:38:04;;;;;;;3.72;2.22;;;;;;;;;;4934316;29;20086;-71
2022/04/23 02:40:31;;;;;;;8.65;2.75;;;;;;;;;;4934279;29;20410;-70
2022/04/23 02:42:57;;;;;;;6.85;2.00;;;;;;;;;;4934145;29;20537;-69
2022/04/23 02:45:25;;;;;;;5.45;2.13;;;;;;;;;;4934200;29;20413;-69
2022/04/23 02:47:55;;;;;;;5.80;2.35;;;;;;;;;;4932922;29;20394;-69
2022/04/23 02:50:26;;;;;;;4.25;2.17;;;;;;;;;;4933535;29;20043;-70
2022/04/23 02:52:52;;;;;;;5.13;2.28;;;;;;;;;;4934149;29;20048;-70
2022/04/23 02:55:18;;;;;;;3.75;2.20;;;;;;;;;;4934385;29;20055;-70
2022/04/23 02:57:44;;;;;;;7.35;2.42;;;;;;;;;;4933746;29;20048;-69
2022/04/23 03:00:11;;;;;;;3.35;2.28;;;;;;;;;;4933815;29;20048;-69
2022/04/23 03:02:37;;;;;;;3.38;2.10;;;;;;;;;;4933178;29;20143;-70
2022/04/23 03:05:08;;;;;;;4.85;2.20;;;;;;;;;;4933837;29;20429;-69
2022/04/23 03:07:35;;;;;;;5.40;2.42;;;;;;;;;;4932250;29;20099;-69
2022/04/23 03:10:02;;;;;;;3.95;2.28;;;;;;;;;;4931912;29;20079;-69
2022/04/23 03:12:28;;;;;;;4.47;2.65;;;;;;;;;;4933655;29;20074;-69
2022/04/23 03:14:54;;;;;;;4.88;2.08;;;;;;;;;;4933326;29;20050;-69
2022/04/23 03:17:20;;;;;;;7.10;2.67;;;;;;;;;;4933071;29;20059;-69
2022/04/23 03:19:47;;;;;;;5.00;2.40;;;;;;;;;;4932858;29;20098;-69
2022/04/23 03:22:14;;;;;;;4.45;2.05;;;;;;;;;;4933406;29;20051;-69
2022/04/23 03:24:40;;;;;;;4.72;2.17;;;;;;;;;;4932952;29;20102;-70
2022/04/23 03:27:06;;;;;;;3.33;2.00;;;;;;;;;;4933539;29;20048;-69
2022/04/23 03:29:33;;;;;;;6.68;2.40;;;;;;;;;;4933285;29;20583;-70
2022/04/23 03:31:59;;;;;;;3.63;2.20;;;;;;;;;;4931870;29;20056;-70
2022/04/23 03:34:25;;;;;;;4.38;2.20;;;;;;;;;;4932625;29;20111;-70
2022/04/23 03:36:52;;;;;;;6.72;2.60;;;;;;;;;;4933191;29;20067;-70
2022/04/23 03:39:19;;;;;;;6.03;2.30;;;;;;;;;;4932759;29;20604;-70
2022/04/23 03:41:45;;;;;;;5.05;2.08;;;;;;;;;;4932937;29;20090;-69
2022/04/23 03:44:11;;;;;;;5.00;2.50;;;;;;;;;;4932570;29;20047;-69
2022/04/23 03:46:37;;;;;;;4.13;2.28;;;;;;;;;;4932534;29;20528;-69
2022/04/23 03:49:03;;;;;;;4.95;2.42;;;;;;;;;;4932990;29;20044;-70
2022/04/23 03:51:29;;;;;;;4.47;2.38;;;;;;;;;;4932830;29;20040;-70
2022/04/23 03:53:55;;;;;;;6.07;2.38;;;;;;;;;;4932769;29;20052;-70
2022/04/23 03:56:21;;;;;;;4.00;1.90;;;;;;;;;;4931546;29;20383;-70
2022/04/23 03:58:48;;;;;;;4.85;3.03;;;;;;;;;;4932462;29;20489;-70
2022/04/23 04:01:14;;;;;;;5.60;2.50;;;;;;;;;;4932477;29;20043;-71
2022/04/23 04:03:40;;;;;;;4.35;2.75;;;;;;;;;;4932103;29;20091;-71
2022/04/23 04:06:06;;;;;;;3.70;2.40;;;;;;;;;;4932239;29;20083;-69
2022/04/23 04:08:32;;;;;;;4.13;2.25;;;;;;;;;;4932456;29;20059;-69
2022/04/23 04:10:58;;;;;;;4.15;2.30;;;;;;;;;;4932285;29;20048;-70
2022/04/23 04:13:24;;;;;;;4.22;2.35;;;;;;;;;;4932487;29;20047;-69
2022/04/23 04:15:50;;;;;;;4.18;2.20;;;;;;;;;;4932600;29;20052;-69
2022/04/23 04:18:16;;;;;;;4.63;2.30;;;;;;;;;;4932366;29;20580;-69
2022/04/23 04:20:42;;;;;;;4.97;2.10;;;;;;;;;;4931731;29;20043;-69
2022/04/23 04:23:09;;;;;;;5.35;2.33;;;;;;;;;;4932367;29;20059;-69
2022/04/23 04:25:35;;;;;;;4.22;2.05;;;;;;;;;;4932432;29;20051;-69
2022/04/23 04:28:01;;;;;;;4.20;2.15;;;;;;;;;;4931638;29;20044;-69
2022/04/23 04:31:46;;;;;;;4.35;2.17;;;;;;;;;;4932238;29;20048;-69
2022/04/23 04:33:14;;;;;;;3.65;1.95;;;;;;;;;;4931823;29;20052;-69
2022/04/23 04:35:40;;;;;;;7.32;2.15;;;;;;;;;;4931602;29;20043;-69
2022/04/23 04:38:06;;;;;;;5.47;2.20;;;;;;;;;;4931832;29;20044;-69
2022/04/23 04:40:32;;;;;;;4.45;2.03;;;;;;;;;;4932008;29;20080;-69
2022/04/23 04:42:58;;;;;;;4.22;2.17;;;;;;;;;;4932057;29;20043;-69
2022/04/23 04:45:24;;;;;;;3.40;1.90;;;;;;;;;;4931014;29;20405;-70
2022/04/23 04:47:50;;;;;;;3.47;1.90;;;;;;;;;;4931748;29;20047;-69
2022/04/23 04:50:17;;;;;;;2.55;1.85;;;;;;;;;;4932286;29;20043;-69
2022/04/23 04:52:44;;;;;;;2.95;2.05;;;;;;;;;;4931597;29;20051;-69
2022/04/23 04:55:10;;;;;;;3.80;2.28;;;;;;;;;;4932238;29;20048;-68
2022/04/23 04:57:36;;;;;;;8.55;2.58;;;;;;;;;;4930187;29;20047;-71
2022/04/23 05:00:04;;;;;;;5.68;2.25;;;;;;;;;;4931886;29;20058;-71
2022/04/23 05:02:30;;;;;;;3.90;2.08;;;;;;;;;;4931580;29;20052;-70
2022/04/23 05:04:56;;;;;;;5.13;2.83;;;;;;;;;;4932159;29;20138;-70
2022/04/23 05:07:22;;;;;;;3.05;1.85;;;;;;;;;;4931449;29;20191;-71
2022/04/23 05:09:48;;;;;;;2.97;1.92;;;;;;;;;;4931264;29;20159;-70
2022/04/23 05:12:14;;;;;;;4.38;1.80;;;;;;;;;;4931771;29;20150;-70
2022/04/23 05:14:40;;;;;;;3.35;1.90;;;;;;;;;;4934013;29;20083;-70
2022/04/23 05:17:06;;;;;;;4.03;2.30;;;;;;;;;;4950751;28;20074;-70
2022/04/23 05:19:32;;;;;;;4.30;2.35;;;;;;;;;;4945533;28;20113;-70
2022/04/23 05:21:58;;;;;;;3.42;1.90;;;;;;;;;;4931893;29;20051;-70
2022/04/23 05:24:24;;;;;;;4.38;2.30;;;;;;;;;;4931652;29;20094;-70
2022/04/23 05:26:50;;;;;;;4.82;2.33;;;;;;;;;;4931740;29;20048;-69
2022/04/23 05:29:16;;;;;;;3.70;2.00;;;;;;;;;;4931662;29;20051;-70
2022/04/23 05:31:42;;;;;;;3.70;2.17;;;;;;;;;;4930806;29;20106;-69
2022/04/23 05:34:08;;;;;;;6.18;2.15;;;;;;;;;;4931987;29;20087;-68
2022/04/23 05:36:35;;;;;;;7.00;2.40;;;;;;;;;;4931738;29;20680;-70
2022/04/23 05:39:01;;;;;;;6.47;2.35;;;;;;;;;;4931581;29;20425;-69
2022/04/23 05:41:27;;;;;;;5.78;2.00;;;;;;;;;;4930473;29;20058;-70
2022/04/23 05:43:53;;;;;;;3.38;1.95;;;;;;;;;;4930907;29;20082;-70
2022/04/23 05:46:19;;;;;;;6.28;2.42;;;;;;;;;;4931437;29;20055;-70
2022/04/23 05:48:45;;;;;;;6.00;2.30;;;;;;;;;;4931553;29;20044;-70
2022/04/23 05:51:11;;;;;;;5.95;2.72;;;;;;;;;;4931383;29;20066;-70
2022/04/23 05:53:37;;;;;;;5.72;2.42;;;;;;;;;;4945177;29;20126;-69
2022/04/23 05:56:04;;;;;;;6.70;2.55;;;;;;;;;;4953362;28;20129;-69
2022/04/23 05:58:30;;;;;;;5.38;3.00;;;;;;;;;;4945747;29;20518;-69
2022/04/23 06:00:59;;;;;;;4.70;2.10;;;;;;;;;;4934895;29;20056;-70
2022/04/23 06:03:25;;;;;;;4.18;2.10;;;;;;;;;;4934746;29;20183;-70
2022/04/23 06:05:51;;;;;;;4.43;2.30;;;;;;;;;;4934578;29;20137;-70
2022/04/23 06:08:17;;;;;;;5.53;2.53;;;;;;;;;;4934902;29;20048;-70
2022/04/23 06:10:43;;;;;;;4.78;2.40;;;;;;;;;;4934971;29;20185;-70
2022/04/23 06:13:09;;;;;;;4.95;2.10;;;;;;;;;;4935096;29;20058;-70
2022/04/23 06:15:36;;;;;;;5.15;2.63;;;;;;;;;;4933532;29;20056;-70
2022/04/23 06:18:02;;;;;;;3.92;2.45;;;;;;;;;;4934464;29;20688;-70
2022/04/23 06:20:28;;;;;;;4.13;2.10;;;;;;;;;;4934681;29;20417;-71
2022/04/23 06:22:54;;;;;;;6.72;2.30;;;;;;;;;;4934484;29;20528;-71
2022/04/23 06:25:20;;;;;;;4.45;2.20;;;;;;;;;;4935262;29;20134;-70
2022/04/23 06:27:46;;;;;;;4.40;2.28;;;;;;;;;;4935078;29;20063;-70
2022/04/23 06:30:13;;;;;;;5.63;2.15;;;;;;;;;;4933981;29;20528;-70
2022/04/23 06:32:39;;;;;;;3.78;2.30;;;;;;;;;;4934133;29;20047;-70
2022/04/23 06:35:06;;;;;;;3.55;2.38;;;;;;;;;;4934919;29;20506;-69
2022/04/23 06:37:37;;;;;;;3.90;1.75;;;;;;;;;;4934120;29;20044;-70
2022/04/23 06:40:03;;;;;;;2.97;2.05;;;;;;;;;;4934437;29;20058;-70
2022/04/23 06:42:29;;;;;;;3.95;2.10;;;;;;;;;;4934310;29;20134;-71
2022/04/23 06:44:55;;;;;;;3.70;2.13;;;;;;;;;;4933778;29;20056;-71
2022/04/23 06:47:22;;;;;;;4.28;2.33;;;;;;;;;;4934634;29;20048;-71
2022/04/23 06:49:48;;;;;;;4.30;2.28;;;;;;;;;;4934140;29;20051;-69
2022/04/23 06:52:14;;;;;;;4.95;2.17;;;;;;;;;;4933771;29;20047;-72
2022/04/23 06:54:40;;;;;;;3.70;2.28;;;;;;;;;;4933690;29;20051;-70
2022/04/23 06:57:06;;;;;;;5.55;2.58;;;;;;;;;;4934191;29;20043;-72
2022/04/23 06:59:33;;;;;;;5.43;1.73;;;;;;;;;;4933598;29;20052;-69
2022/04/23 07:02:02;;;;;;;6.93;2.38;;;;;;;;;;4934142;29;20048;-69
2022/04/23 07:04:29;;;;;;;6.20;2.42;;;;;;;;;;4933972;29;20060;-69
2022/04/23 07:06:55;;;;;;;4.15;2.50;;;;;;;;;;4933664;29;20051;-70
2022/04/23 07:09:21;;;;;;;5.18;2.20;;;;;;;;;;4934060;29;20745;-70
2022/04/23 07:11:47;;;;;;;4.70;2.65;;;;;;;;;;4932841;29;20054;-71
2022/04/23 07:14:13;;;;;;;6.10;2.50;;;;;;;;;;4933663;29;20048;-70
2022/04/23 07:16:40;;;;;;;4.82;2.42;;;;;;;;;;4932700;29;20401;-71
2022/04/23 07:19:07;;;;;;;4.50;2.35;;;;;;;;;;4934152;29;20517;-71
2022/04/23 07:21:34;;;;;;;4.70;2.13;;;;;;;;;;4933211;29;20058;-71
2022/04/23 07:24:04;;;;;;;4.38;2.20;;;;;;;;;;4948717;29;20043;-71
2022/04/23 07:26:31;;;;;;;3.63;2.35;;;;;;;;;;4953000;28;20493;-72
2022/04/23 07:28:57;;;;;;;5.40;2.58;;;;;;;;;;4951612;29;20153;-69
2022/04/23 07:31:24;;;;;;;4.03;2.10;;;;;;;;;;4952165;29;20055;-70
2022/04/23 07:39:21;;;;;;;3.78;2.22;;;;;;;;;;4951111;29;20058;-70
2022/04/23 07:41:47;;;;;;;3.50;2.28;;;;;;;;;;4951957;28;20433;-69
2022/04/23 07:44:13;;;;;;;2.58;1.98;;;;;;;;;;4952840;28;20040;-69
2022/04/23 07:46:39;;;;;;;2.65;1.95;;;;;;;;;;4952426;28;20150;-70
2022/04/23 07:49:05;;;;;;;3.17;1.95;;;;;;;;;;4952418;28;20469;-70
2022/04/23 07:51:31;;;;;;;3.40;2.20;;;;;;;;;;4952410;28;20093;-70
2022/04/23 07:53:57;;;;;;;3.28;2.17;;;;;;;;;;4951526;28;20043;-70
2022/04/23 07:56:24;;;;;;;3.25;2.38;;;;;;;;;;4932934;29;20047;-70
2022/04/23 07:58:50;;;;;;;3.28;2.20;;;;;;;;;;4952070;29;20102;-71
2022/04/23 08:01:16;;;;;;;3.25;2.17;;;;;;;;;;4950885;28;20047;-71
2022/04/23 08:03:42;;;;;;;3.42;2.40;;;;;;;;;;4951620;28;20055;-70
2022/04/23 08:06:10;;;;;;;3.45;2.28;;;;;;;;;;4952180;29;20056;-70
2022/04/23 08:08:36;;;;;;;3.90;2.28;;;;;;;;;;4952149;29;20047;-69
2022/04/23 08:11:02;;;;;;;3.40;2.20;;;;;;;;;;4951890;28;20211;-70
2022/04/23 08:13:28;;;;;;;3.45;2.00;;;;;;;;;;4949945;28;20043;-70
2022/04/23 08:15:54;;;;;;;3.67;2.28;;;;;;;;;;4932204;29;20055;-70
2022/04/23 08:18:20;;;;;;;3.65;2.40;;;;;;;;;;4943045;29;20409;-71
2022/04/23 08:20:47;;;;;;;3.10;2.00;;;;;;;;;;4951728;28;20173;-70
2022/04/23 08:23:15;;;;;;;4.20;2.47;;;;;;;;;;4952047;28;20058;-70
2022/04/23 08:25:41;;;;;;;3.72;2.45;;;;;;;;;;4951678;28;20055;-69
2022/04/23 08:30:52;;;;;;;4.10;2.10;;;;;;;;;;4930576;29;20138;-69
2022/04/23 08:33:18;;;;;;;3.40;2.13;;;;;;;;;;4932639;29;20043;-69
2022/04/23 08:35:44;;;;;;;3.35;2.20;;;;;;;;;;4932128;29;20059;-69
2022/04/23 08:38:10;;;;;;;4.07;2.88;;;;;;;;;;4932408;29;20047;-69
2022/04/23 08:40:37;;;;;;;4.88;3.03;;;;;;;;;;4949679;28;20054;-70
2022/04/23 08:43:03;;;;;;;6.10;3.60;;;;;;;;;;4950190;29;20576;-68
2022/04/23 08:45:32;;;;;;;6.75;3.10;;;;;;;;;;4950394;28;20047;-69
2022/04/23 08:48:00;;;;;;;6.05;3.83;;;;;;;;;;4951424;28;20138;-70
2022/04/23 08:50:26;;;;;;;5.53;3.45;;;;;;;;;;4950969;28;20074;-72
2022/04/23 08:52:56;;;;;;;6.00;3.28;;;;;;;;;;4949476;29;20048;-71
2022/04/23 08:55:22;;;;;;;;;;;;;;;;;;4950555;28;20047;-70
2022/04/23 08:57:48;;;;;;;6.75;3.42;;;;;;;;;;4951083;28;19937;-72
2022/04/23 09:00:15;;;;;;;5.43;3.20;;;;;;;;;;4950752;28;20087;-71
2022/04/23 09:02:42;;;;;;;7.00;3.47;;;;;;;;;;4951444;28;20055;-69
2022/04/23 09:05:08;;;;;;;5.25;3.08;;;;;;;;;;4951237;29;20051;-70
2022/04/23 09:07:34;;;;;;;5.43;3.08;;;;;;;;;;4950991;28;20059;-71
2022/04/23 09:10:01;;;;;;;4.63;3.33;;;;;;;;;;4949464;28;20047;-70
2022/04/23 09:12:28;;;;;;;4.75;2.90;;;;;;;;;;4948439;28;20045;-69
2022/04/23 09:15:04;;;;;;;4.38;3.10;;;;;;;;;;4950288;29;20040;-68
2022/04/23 09:25:49;;;;;;;5.15;2.70;;;;;;;;;;4948372;28;20101;-70
2022/04/23 09:28:26;;;;;;;8.50;3.15;;;;;;;;;;4947284;29;20384;-70
2022/04/23 09:30:56;;;;;;;5.25;2.53;;;;;;;;;;4949996;28;20506;-70
2022/04/23 09:33:42;;;;;;;5.40;3.35;;;;;;;;;;4951528;28;20057;-72
2022/04/23 09:36:08;;;;;;;6.05;2.83;;;;;;;;;;4950380;29;20437;-71
2022/04/23 09:38:34;;;;;;;4.10;2.97;;;;;;;;;;4951311;28;20043;-70
2022/04/23 09:41:16;;;;;;;3.70;2.80;;;;;;;;;;4952400;28;20413;-71
2022/04/23 09:43:43;;;;;;;5.30;2.95;;;;;;;;;;4952805;29;20389;-70
2022/04/23 09:46:09;;;;;;;4.30;2.72;;;;;;;;;;4954605;28;20054;-71
2022/04/23 09:48:39;;;;;;;5.80;3.17;;;;;;;;;;4954581;28;20062;-70
2022/04/23 09:51:26;;;;;;;4.50;2.78;;;;;;;;;;4954327;28;20134;-71
2022/04/23 09:53:53;;;;;;;3.90;2.83;;;;;;;;;;4954711;28;20157;-71
2022/04/23 09:56:21;;;;;;;3.35;2.63;;;;;;;;;;4954648;28;20397;-70
2022/04/23 09:58:47;;;;;;;4.35;2.70;;;;;;;;;;4953224;28;20645;-71
2022/04/23 10:01:14;;;;;;;5.30;2.65;;;;;;;;;;4954584;28;20458;-72
2022/04/23 10:03:44;;;;;;;4.20;2.70;;;;;;;;;;4952826;29;20062;-69
2022/04/23 10:06:12;;;;;;;5.13;2.90;;;;;;;;;;4953838;28;20432;-71
2022/04/23 10:08:41;;;;;;;4.55;2.92;;;;;;;;;;4952952;28;20055;-70
2022/04/23 10:11:19;;;;;;;4.65;2.78;;;;;;;;;;4952957;29;20097;-72
2022/04/23 10:13:49;;;;;;;4.68;3.08;;;;;;;;;;4954157;28;20054;-70
2022/04/23 10:16:16;;;;;;;3.78;2.88;;;;;;;;;;4933394;29;20410;-69
2022/04/23 10:18:43;;;;;;;4.18;2.95;;;;;;;;;;4945483;29;20154;-70
2022/04/23 10:21:17;;;;;;;3.55;2.80;;;;;;;;;;4953419;29;20051;-69
2022/04/23 10:23:49;;;;;;;4.72;2.85;;;;;;;;;;4954283;28;20051;-69
2022/04/23 10:26:35;;;;;;;4.28;2.60;;;;;;;;;;4954441;28;20047;-71
2022/04/23 10:29:02;;;;;;;5.63;2.85;;;;;;;;;;4953534;28;20599;-71
2022/04/23 10:31:28;;;;;;;4.55;2.78;;;;;;;;;;4953750;28;20039;-70
2022/04/23 10:33:54;;;;;;;5.43;2.80;;;;;;;;;;4953964;28;20054;-71
2022/04/23 10:36:22;;;;;;;4.05;2.35;;;;;;;;;;4953338;28;20128;-71
2022/04/23 10:38:52;;;;;;;3.75;2.60;;;;;;;;;;4947015;28;20093;-70
2022/04/23 10:41:23;;;;;;;3.92;2.75;;;;;;;;;;4932704;29;20406;-70
2022/04/23 10:43:50;;;;;;;3.05;2.50;;;;;;;;;;4934726;29;20059;-69
2022/04/23 10:46:35;;;;;;;4.50;2.70;;;;;;;;;;4952166;29;20058;-70
2022/04/23 10:49:20;;;;;;;3.67;2.83;;;;;;;;;;4953077;28;20043;-71
2022/04/23 10:51:47;;;;;;;3.50;2.50;;;;;;;;;;4946229;29;20063;-70
2022/04/23 10:54:16;;;;;;;4.15;2.50;;;;;;;;;;4953097;28;20062;-70
2022/04/23 10:56:42;;;;;;;2.70;2.33;;;;;;;;;;4953327;28;20051;-71
2022/04/23 10:59:27;;;;;;;3.88;2.58;;;;;;;;;;4951426;29;20180;-69
2022/04/23 11:01:53;;;;;;;3.88;2.53;;;;;;;;;;4953119;28;20082;-70
2022/04/23 11:04:20;;;;;;;3.97;2.50;;;;;;;;;;4952836;28;20067;-69
2022/04/23 11:12:32;;;;;;;4.07;2.70;;;;;;;;;;4953015;28;20048;-72
2022/04/23 11:15:00;;;;;;;3.80;2.30;;;;;;;;;;4942951;28;20047;-71
2022/04/23 11:17:30;;;;;;;3.80;2.70;;;;;;;;;;4934190;29;20126;-70
2022/04/23 11:19:56;;;;;;;3.25;2.30;;;;;;;;;;4933748;29;20091;-71
2022/04/23 11:22:22;;;;;;;3.97;2.63;;;;;;;;;;4932979;29;20047;-70
2022/04/23 11:24:49;;;;;;;3.65;2.90;;;;;;;;;;4933759;29;20099;-72
2022/04/23 11:27:25;;;;;;;5.15;3.15;;;;;;;;;;4933627;29;20055;-72
2022/04/23 11:29:54;;;;;;;4.03;2.80;;;;;;;;;;4942600;29;20050;-71
2022/04/23 11:32:27;;;;;;;4.22;3.00;;;;;;;;;;4952062;28;20048;-70
2022/04/23 11:34:57;;;;;;;6.18;2.95;;;;;;;;;;4952612;28;20079;-71
2022/04/23 11:37:33;;;;;;;3.53;2.70;;;;;;;;;;4952594;28;20421;-71
2022/04/23 11:40:10;;;;;;;5.90;3.10;;;;;;;;;;4947113;29;20517;-71
2022/04/23 11:42:39;;;;;;;4.97;3.10;;;;;;;;;;4932975;29;20044;-72
2022/04/23 11:45:06;;;;;;;3.47;2.58;;;;;;;;;;4945992;29;20079;-73
2022/04/23 11:47:33;;;;;;;4.68;3.17;;;;;;;;;;4951102;28;20102;-72
2022/04/23 11:50:13;;;;;;;4.78;2.75;;;;;;;;;;4950274;28;20053;-71
2022/04/23 11:52:40;;;;;;;5.22;3.03;;;;;;;;;;4950000;28;20107;-71
2022/04/23 11:55:06;;;;;;;4.25;2.67;;;;;;;;;;4951672;28;20055;-71
2022/04/23 11:57:32;;;;;;;5.30;2.60;;;;;;;;;;4950735;29;20054;-71
2022/04/23 11:59:59;;;;;;;3.95;2.85;;;;;;;;;;4950938;29;20082;-71
2022/04/23 12:02:32;;;;;;;4.28;2.67;;;;;;;;;;4951375;28;20129;-71
2022/04/23 12:05:02;;;;;;;3.42;2.65;;;;;;;;;;4950872;28;20039;-69
2022/04/23 12:07:31;;;;;;;6.15;2.90;;;;;;;;;;4951427;28;20532;-71
2022/04/23 12:09:58;;;;;;;6.60;2.55;;;;;;;;;;4950241;28;20427;-70
2022/04/23 12:12:25;;;;;;;5.43;2.78;;;;;;;;;;4951693;28;20477;-70
2022/04/23 12:14:52;;;;;;;5.07;2.50;;;;;;;;;;4951629;28;20075;-70
2022/04/23 12:17:26;;;;;;;4.22;2.90;;;;;;;;;;4951008;28;20134;-70
2022/04/23 12:19:53;;;;;;;3.03;2.58;;;;;;;;;;4951348;28;20545;-71
2022/04/23 12:22:30;;;;;;;6.60;3.10;;;;;;;;;;4950767;28;20065;-71
2022/04/23 12:25:15;;;;;;;5.07;2.88;;;;;;;;;;4951894;28;20130;-71
2022/04/23 12:28:00;;;;;;;8.38;3.00;;;;;;;;;;4951744;28;20058;-70
2022/04/23 12:41:55;;;;;;;4.38;2.70;;;;;;;;;;4950069;29;20143;-71
2022/04/23 12:44:21;;;;;;;4.72;3.05;;;;;;;;;;4951642;28;20055;-71
2022/04/23 12:47:01;;;;;;;4.75;2.90;;;;;;;;;;4950011;28;20102;-71
2022/04/23 12:49:46;;;;;;;5.30;3.00;;;;;;;;;;4951461;28;20492;-71
2022/04/23 12:52:16;;;;;;;4.22;2.80;;;;;;;;;;4951134;28;20498;-70
2022/04/23 12:55:02;;;;;;;5.72;2.97;;;;;;;;;;4950923;28;20039;-71
2022/04/23 12:57:28;;;;;;;4.65;3.15;;;;;;;;;;4951329;28;20077;-71
2022/04/23 12:59:54;;;;;;;3.60;2.88;;;;;;;;;;4950681;28;20533;-71
2022/04/23 13:02:20;;;;;;;5.38;2.85;;;;;;;;;;4950967;28;20548;-70
2022/04/23 13:04:46;;;;;;;5.35;2.78;;;;;;;;;;4950812;28;20051;-71
2022/04/23 13:10:10;;;;;;;4.72;3.20;;;;;;;;;;4938775;29;20058;-71
2022/04/23 13:12:36;;;;;;;4.65;3.42;;;;;;;;;;4951311;28;20054;-71
2022/04/23 13:15:04;;;;;;;3.75;2.60;;;;;;;;;;4950317;28;20047;-71
2022/04/23 13:17:30;;;;;;;5.35;2.72;;;;;;;;;;4950730;28;20085;-71
2022/04/23 13:19:56;;;;;;;4.05;2.80;;;;;;;;;;4933188;29;20055;-71
2022/04/23 13:22:22;;;;;;;6.13;2.88;;;;;;;;;;4951248;28;20054;-71
2022/04/23 13:24:48;;;;;;;4.35;2.90;;;;;;;;;;4950512;28;20077;-71
2022/04/23 13:27:15;;;;;;;4.47;2.85;;;;;;;;;;4951076;28;20503;-71
2022/04/23 13:29:41;;;;;;;4.45;2.53;;;;;;;;;;4950441;28;20059;-71
2022/04/23 13:32:07;;;;;;;4.68;3.03;;;;;;;;;;4934707;29;20465;-72
2022/04/23 13:34:33;;;;;;;3.90;2.55;;;;;;;;;;4950821;28;20528;-71
2022/04/23 13:36:59;;;;;;;4.35;2.70;;;;;;;;;;4965555;28;20465;-71
2022/04/23 13:39:25;;;;;;;3.30;2.20;;;;;;;;;;4950760;28;20047;-71
2022/04/23 13:41:51;;;;;;;3.35;2.13;;;;;;;;;;4948887;29;20067;-70
2022/04/23 13:44:17;;;;;;;2.10;1.77;;;;;;;;;;4950362;28;20047;-71
2022/04/23 13:46:45;;;;;;;2.53;1.90;;;;;;;;;;4950810;28;20054;-71
2022/04/23 13:49:12;;;;;;;3.03;1.95;;;;;;;;;;4947214;28;20703;-70
2022/04/23 13:51:39;;;;;;;4.07;2.00;;;;;;;;;;4950353;28;20050;-70
2022/04/23 13:54:05;;;;;;;3.13;2.00;;;;;;;;;;4950901;28;20391;-70
2022/04/23 13:56:31;;;;;;;3.13;1.95;;;;;;;;;;4950174;28;20055;-71
2022/04/23 13:58:57;;;;;;;2.97;1.95;;;;;;;;;;4950784;28;20055;-71
2022/04/23 14:01:23;;;;;;;4.85;2.20;;;;;;;;;;4949700;28;20098;-71
2022/04/23 14:12:04;;;;;;;3.08;1.92;;;;;;;;;;4950579;28;20055;-71
2022/04/23 14:14:30;;;;;;;3.08;1.95;;;;;;;;;;4950675;28;20134;-71
2022/04/23 14:16:56;;;;;;;4.75;2.20;;;;;;;;;;4951740;28;20043;-71
2022/04/23 14:19:22;;;;;;;2.72;1.75;;;;;;;;;;4952689;29;20061;-73
2022/04/23 14:21:48;;;;;;;3.90;1.98;;;;;;;;;;4953878;28;20449;-73
2022/04/23 14:24:14;;;;;;;3.90;2.30;;;;;;;;;;4953918;28;20871;-72
2022/04/23 14:26:40;;;;;;;3.25;2.15;;;;;;;;;;4953479;28;20047;-72
2022/04/23 14:29:06;;;;;;;3.58;1.95;;;;;;;;;;4949760;28;20051;-73
2022/04/23 14:31:32;;;;;;;3.35;2.10;;;;;;;;;;4951290;29;20046;-73
2022/04/23 14:33:58;;;;;;;3.45;1.60;;;;;;;;;;4953994;28;20471;-74
2022/04/23 14:36:24;;;;;;;3.28;1.80;;;;;;;;;;4952508;29;20051;-73
2022/04/23 14:38:53;;;;;;;5.20;1.98;;;;;;;;;;4953523;28;20039;-73
2022/04/23 14:41:19;;;;;;;3.77;2.00;;;;;;;;;;4953870;29;20051;-75
2022/04/23 14:43:45;;;;;;;3.67;1.73;;;;;;;;;;4951823;29;20054;-73
2022/04/23 14:46:11;;;;;;;3.05;1.60;;;;;;;;;;4952087;29;20061;-74
2022/04/23 14:48:37;;;;;;;3.10;1.70;;;;;;;;;;4952273;28;20055;-73
2022/04/23 14:56:53;;;;;;;2.95;1.90;;;;;;;;;;4959032;23;20062;-67
2022/04/23 15:01:55;;;;;;;2.88;1.67;;;;;;;;;;4863960;23;20056;-70
2022/04/23 15:04:22;;;;;;;2.38;1.80;;;;;;;;;;4933459;29;20058;-71
2022/04/23 15:06:50;;;;;;;2.75;2.10;;;;;;;;;;4944751;29;20085;-69
2022/04/23 15:09:16;;;;;;;2.75;1.67;;;;;;;;;;4952745;28;20726;-69
2022/04/23 15:11:42;;;;;;;2.85;1.70;;;;;;;;;;4952885;29;20420;-69
2022/04/23 15:14:09;;;;;;;4.13;1.70;;;;;;;;;;4945339;28;20160;-70
2022/04/23 15:16:35;;;;;;;2.17;1.60;;;;;;;;;;4951279;29;20055;-69
2022/04/23 15:19:01;;;;;;;2.78;1.95;;;;;;;;;;4952189;29;20494;-71
2022/04/23 15:21:27;;;;;;;2.83;1.60;;;;;;;;;;4952161;29;20429;-70
2022/04/23 15:23:54;;;;;;;2.40;1.70;;;;;;;;;;4951815;28;20093;-70
2022/04/23 15:26:21;;;;;;;4.28;1.92;;;;;;;;;;4952221;29;20482;-69
2022/04/23 15:28:47;;;;;;;2.67;1.80;;;;;;;;;;4950247;28;20061;-70
2022/04/23 15:31:13;;;;;;;1.90;1.50;;;;;;;;;;4949499;29;20098;-70
2022/04/23 15:33:39;;;;;;;3.17;1.90;;;;;;;;;;4951841;28;20058;-70
2022/04/23 15:36:05;;;;;;;2.25;1.85;;;;;;;;;;4951480;29;20047;-71
2022/04/23 15:38:32;;;;;;;2.65;1.60;;;;;;;;;;4951564;28;20074;-70